createdAt,value
2022-08-18T00:02:16.649Z,46.35
2022-08-18T00:04:48.837Z,46.55
2022-08-18T00:07:25.001Z,46.83
2022-08-18T00:12:31.689Z,44.60
2022-08-18T00:15:04.020Z,45.80
2022-08-18T00:17:30.359Z,46.35
2022-08-18T00:19:56.244Z,43.90
2022-08-18T00:22:22.629Z,46.75
2022-08-18T00:24:52.789Z,45.25
2022-08-18T00:27:28.726Z,47.47
2022-08-18T00:29:57.311Z,48.60
2022-08-18T00:32:27.727Z,48.67
2022-08-18T00:34:54.359Z,50.28
2022-08-18T00:37:22.122Z,51.28
2022-08-18T00:39:51.954Z,53.75
2022-08-18T00:42:27.796Z,53.22
2022-08-18T00:45:01.344Z,53.42
2022-08-18T00:47:41.420Z,56.45
2022-08-18T00:50:30.846Z,52.80
2022-08-18T00:53:01.659Z,53.88
2022-08-18T00:55:29.683Z,54.75
2022-08-18T00:58:02.969Z,55.75
2022-08-18T01:00:29.043Z,56.33
2022-08-18T01:02:59.082Z,56.63
2022-08-18T01:05:42.849Z,53.42
2022-08-18T01:08:13.616Z,55.20
2022-08-18T01:10:40.498Z,54.53
2022-08-18T01:13:07.224Z,54.20
2022-08-18T01:15:33.540Z,54.58
2022-08-18T01:18:22.054Z,52.90
2022-08-18T01:21:22.271Z,57.08
2022-08-18T01:23:49.464Z,59.88
2022-08-18T01:26:17.232Z,62.88
2022-08-18T01:28:45.703Z,66.38
2022-08-18T01:31:28.318Z,65.70
2022-08-18T01:33:54.309Z,60.10
2022-08-18T01:36:21.322Z,63.47
2022-08-18T01:38:51.478Z,58.75
2022-08-18T01:41:28.384Z,59.90
2022-08-18T01:43:56.135Z,60.85
2022-08-18T01:46:22.527Z,62.95
2022-08-18T01:48:48.622Z,64.95
2022-08-18T01:51:15.680Z,62.90
2022-08-18T01:53:41.738Z,66.28
2022-08-18T01:56:07.933Z,64.82
2022-08-18T01:58:35.416Z,64.05
2022-08-18T02:01:02.309Z,64.15
2022-08-18T02:03:33.893Z,63.38
2022-08-18T02:06:02.233Z,64.88
2022-08-18T02:08:29.055Z,61.15
2022-08-18T02:10:58.018Z,55.00
2022-08-18T02:13:25.694Z,50.45
2022-08-18T02:15:51.866Z,40.63
2022-08-18T02:18:25.965Z,39.83
2022-08-18T02:21:13.557Z,41.22
2022-08-18T02:23:41.836Z,42.22
2022-08-18T02:26:19.379Z,44.88
2022-08-18T02:28:45.719Z,49.35
2022-08-18T02:31:15.402Z,53.25
2022-08-18T02:33:42.202Z,60.67
2022-08-18T02:36:18.435Z,62.80
2022-08-18T02:38:44.446Z,65.45
2022-08-18T02:41:22.168Z,60.75
2022-08-18T02:43:48.003Z,59.83
2022-08-18T02:46:14.153Z,61.05
2022-08-18T02:48:40.037Z,45.47
2022-08-18T02:51:05.889Z,32.58
2022-08-18T02:53:32.438Z,17.48
2022-08-18T02:56:41.508Z,16.95
2022-08-18T02:59:19.112Z,17.58
2022-08-18T03:01:50.570Z,18.27
2022-08-18T03:04:21.131Z,21.92
2022-08-18T03:06:49.133Z,24.08
2022-08-18T03:09:17.845Z,23.75
2022-08-18T03:11:44.686Z,25.83
2022-08-18T03:14:11.505Z,26.70
2022-08-18T03:16:54.559Z,27.55
2022-08-18T03:19:27.469Z,27.30
2022-08-18T03:21:54.667Z,30.40
2022-08-18T03:24:22.761Z,30.40
2022-08-18T03:26:50.613Z,31.27
2022-08-18T03:29:16.480Z,34.33
2022-08-18T03:31:43.789Z,29.55
2022-08-18T03:34:10.322Z,30.55
2022-08-18T03:36:36.452Z,30.45
2022-08-18T03:39:07.962Z,31.38
2022-08-18T03:41:43.707Z,32.22
2022-08-18T03:44:23.324Z,32.08
2022-08-18T03:46:49.846Z,35.20
2022-08-18T03:49:17.340Z,36.88
2022-08-18T03:51:46.027Z,38.75
2022-08-18T03:54:15.112Z,41.25
2022-08-18T03:56:41.977Z,38.50
2022-08-18T03:59:17.191Z,37.70
2022-08-18T04:04:12.542Z,39.90
2022-08-18T04:06:49.529Z,40.60
2022-08-18T04:09:15.982Z,42.97
2022-08-18T04:11:43.096Z,44.50
2022-08-18T04:14:14.323Z,43.58
2022-08-18T04:16:41.052Z,44.05
2022-08-18T04:19:08.121Z,46.40
2022-08-18T04:21:37.025Z,46.05
2022-08-18T04:24:04.580Z,47.40
2022-08-18T04:26:36.262Z,50.15
2022-08-18T04:29:03.317Z,49.35
2022-08-18T04:31:30.321Z,45.38
2022-08-18T04:34:00.342Z,51.75
2022-08-18T04:36:27.937Z,49.10
2022-08-18T04:38:56.556Z,50.38
2022-08-18T04:41:26.430Z,52.10
2022-08-18T04:43:58.307Z,48.63
2022-08-18T04:46:25.439Z,51.95
2022-08-18T04:48:52.101Z,50.88
2022-08-18T04:52:27.044Z,52.50
2022-08-18T04:54:05.871Z,55.38
2022-08-18T04:56:35.525Z,60.58
2022-08-18T04:59:08.370Z,56.70
2022-08-18T05:01:40.814Z,56.25
2022-08-18T05:04:07.605Z,58.50
2022-08-18T05:06:34.187Z,54.03
2022-08-18T05:09:03.595Z,52.13
2022-08-18T05:11:34.659Z,54.17
2022-08-18T05:14:06.275Z,53.90
2022-08-18T05:16:35.722Z,51.35
2022-08-18T05:19:06.909Z,47.28
2022-08-18T05:21:41.862Z,53.50
2022-08-18T05:24:09.380Z,50.65
2022-08-18T05:26:36.140Z,48.15
2022-08-18T05:29:17.817Z,50.15
2022-08-18T05:31:44.926Z,50.35
2022-08-18T05:34:10.801Z,49.03
2022-08-18T05:36:48.612Z,53.63
2022-08-18T05:39:17.161Z,55.63
2022-08-18T05:42:17.118Z,58.42
2022-08-18T05:44:48.976Z,68.00
2022-08-18T05:47:26.889Z,60.35
2022-08-18T05:49:55.246Z,65.25
2022-08-18T05:52:21.061Z,61.60
2022-08-18T05:55:12.306Z,57.15
2022-08-18T05:57:52.429Z,51.78
2022-08-18T06:00:20.463Z,46.10
2022-08-18T06:02:55.413Z,43.33
2022-08-18T06:05:30.666Z,43.85
2022-08-18T06:10:25.542Z,43.33
2022-08-18T06:13:00.584Z,45.17
2022-08-18T06:15:30.589Z,47.60
2022-08-18T06:18:33.594Z,49.70
2022-08-18T06:21:21.564Z,51.67
2022-08-18T06:24:17.758Z,55.53
2022-08-18T06:26:52.608Z,49.33
2022-08-18T06:29:24.358Z,48.75
2022-08-18T06:32:02.363Z,45.53
2022-08-18T06:34:55.775Z,46.08
2022-08-18T06:37:33.365Z,50.28
2022-08-18T06:39:59.299Z,49.75
2022-08-18T06:42:30.489Z,46.15
2022-08-18T06:45:12.175Z,47.65
2022-08-18T06:47:46.722Z,48.38
2022-08-18T06:50:54.476Z,47.10
2022-08-18T06:53:27.724Z,50.17
2022-08-18T06:55:55.162Z,48.38
2022-08-18T06:58:26.935Z,46.63
2022-08-18T07:00:55.932Z,51.53
2022-08-18T07:03:39.185Z,50.20
2022-08-18T07:06:27.867Z,53.60
2022-08-18T07:09:15.520Z,50.92
2022-08-18T07:11:58.065Z,50.80
2022-08-18T07:14:24.997Z,47.75
2022-08-18T07:17:06.442Z,46.78
2022-08-18T07:19:32.404Z,44.78
2022-08-18T07:22:11.174Z,47.55
2022-08-18T07:24:55.376Z,49.80
2022-08-18T07:27:43.397Z,46.53
2022-08-18T07:30:15.580Z,46.92
2022-08-18T07:33:04.358Z,47.83
2022-08-18T07:35:42.679Z,52.58
2022-08-18T07:38:41.368Z,53.00
2022-08-18T07:43:46.191Z,51.85
2022-08-18T07:46:18.990Z,54.40
2022-08-18T07:48:46.110Z,51.97
2022-08-18T07:51:21.335Z,49.05
2022-08-18T07:54:07.449Z,45.38
2022-08-18T07:56:42.758Z,39.70
2022-08-18T07:59:15.526Z,39.95
2022-08-18T08:02:20.391Z,40.88
2022-08-18T08:05:00.444Z,39.88
2022-08-18T08:07:31.173Z,40.80
2022-08-18T08:10:15.416Z,41.97
2022-08-18T08:13:10.011Z,49.05
2022-08-18T08:16:00.588Z,48.05
2022-08-18T08:18:40.416Z,47.90
2022-08-18T08:21:30.864Z,54.58
2022-08-18T08:24:23.570Z,55.63
2022-08-18T08:27:05.726Z,55.13
2022-08-18T08:29:46.574Z,59.38
2022-08-18T08:32:21.700Z,58.35
2022-08-18T08:35:04.324Z,57.50
2022-08-18T08:37:41.550Z,54.00
2022-08-18T08:40:22.892Z,50.50
2022-08-18T08:42:57.929Z,50.97
2022-08-18T08:45:31.636Z,41.38
2022-08-18T08:48:14.502Z,48.72
2022-08-18T08:50:49.121Z,48.28
2022-08-18T08:53:19.305Z,51.50
2022-08-18T08:55:49.907Z,51.08
2022-08-18T08:58:25.712Z,43.40
2022-08-18T09:00:52.486Z,46.60
2022-08-18T09:03:42.771Z,47.33
2022-08-18T09:06:23.313Z,44.25
2022-08-18T09:09:27.691Z,47.33
2022-08-18T09:12:18.925Z,46.85
2022-08-18T09:15:16.769Z,44.30
2022-08-18T09:18:35.952Z,38.55
2022-08-18T09:21:30.031Z,39.60
2022-08-18T09:24:28.326Z,41.55
2022-08-18T09:27:03.167Z,39.33
2022-08-18T09:29:37.870Z,37.38
2022-08-18T09:32:19.331Z,46.10
2022-08-18T09:35:17.247Z,39.75
2022-08-18T09:38:13.808Z,40.90
2022-08-18T09:41:16.387Z,43.17
2022-08-18T09:46:43.882Z,45.70
2022-08-18T09:49:21.559Z,38.45
2022-08-18T09:51:50.636Z,36.72
2022-08-18T09:54:25.076Z,41.70
2022-08-18T09:56:54.271Z,37.05
2022-08-18T09:59:34.575Z,39.47
2022-08-18T10:02:06.450Z,34.60
2022-08-18T10:04:50.587Z,37.45
2022-08-18T10:07:43.354Z,40.13
2022-08-18T10:11:02.305Z,48.05
2022-08-18T10:13:29.571Z,45.83
2022-08-18T10:16:57.577Z,53.10
2022-08-18T10:19:42.355Z,53.55
2022-08-18T10:22:10.452Z,48.03
2022-08-18T10:24:52.168Z,49.45
2022-08-18T10:30:34.185Z,44.53
2022-08-18T10:33:15.415Z,45.85
2022-08-18T10:35:59.617Z,43.03
2022-08-18T10:38:39.202Z,40.00
2022-08-18T10:41:15.452Z,43.80
2022-08-18T10:43:55.578Z,41.83
2022-08-18T10:49:13.595Z,42.60
2022-08-18T10:52:00.140Z,48.80
2022-08-18T10:55:10.254Z,41.13
2022-08-18T10:58:07.323Z,47.80
2022-08-18T11:00:47.058Z,37.50
2022-08-18T11:03:55.595Z,38.75
2022-08-18T11:06:25.108Z,37.97
2022-08-18T11:08:57.716Z,37.88
2022-08-18T11:11:41.432Z,36.85
2022-08-18T11:14:30.515Z,39.47
2022-08-18T11:17:13.684Z,33.53
2022-08-18T11:19:44.213Z,37.85
2022-08-18T11:22:33.157Z,35.28
2022-08-18T11:25:03.333Z,36.85
2022-08-18T11:27:36.966Z,34.05
2022-08-18T11:30:08.938Z,30.65
2022-08-18T11:32:51.465Z,32.88
2022-08-18T11:35:25.287Z,31.90
2022-08-18T11:38:00.217Z,36.47
2022-08-18T11:43:30.030Z,31.42
2022-08-18T11:49:26.404Z,25.27
2022-08-18T11:51:54.424Z,27.17
2022-08-18T11:54:30.392Z,23.52
2022-08-18T11:57:39.315Z,24.58
2022-08-18T12:00:42.884Z,26.83
2022-08-18T12:03:48.408Z,26.27
2022-08-18T12:06:31.029Z,21.98
2022-08-18T12:09:02.038Z,24.58
2022-08-18T12:11:35.705Z,22.15
2022-08-18T12:14:31.702Z,23.90
2022-08-18T12:16:55.500Z,24.50
2022-08-18T12:19:23.434Z,21.38
2022-08-18T12:21:50.640Z,21.75
2022-08-18T12:24:28.755Z,22.23
2022-08-18T12:27:00.877Z,25.23
2022-08-18T12:29:33.078Z,24.75
2022-08-18T12:34:56.010Z,24.02
2022-08-18T12:37:57.643Z,24.83
2022-08-18T12:40:13.477Z,26.35
2022-08-18T12:42:40.929Z,26.63
2022-08-18T12:45:08.744Z,25.45
2022-08-18T12:47:39.130Z,28.25
2022-08-18T12:50:08.724Z,24.85
2022-08-18T12:52:36.434Z,25.60
2022-08-18T13:00:35.655Z,20.85
2022-08-18T13:03:02.269Z,23.95
2022-08-18T13:05:30.036Z,26.70
2022-08-18T13:07:59.710Z,23.00
2022-08-18T13:10:43.245Z,24.38
2022-08-18T13:13:11.694Z,22.90
2022-08-18T13:15:37.978Z,22.02
2022-08-18T13:18:03.844Z,19.60
2022-08-18T13:20:30.080Z,22.23
2022-08-18T13:22:55.906Z,23.08
2022-08-18T13:25:32.668Z,20.80
2022-08-18T13:28:04.839Z,21.73
2022-08-18T13:30:32.416Z,24.10
2022-08-18T13:33:05.350Z,20.10
2022-08-18T13:35:47.277Z,20.42
2022-08-18T13:38:27.160Z,18.05
2022-08-18T13:40:58.020Z,19.02
2022-08-18T13:43:30.329Z,19.60
2022-08-18T13:45:56.554Z,18.55
2022-08-18T13:48:26.046Z,21.13
2022-08-18T13:50:57.689Z,22.00
2022-08-18T13:53:24.882Z,20.27
2022-08-18T13:55:53.695Z,18.55
2022-08-18T13:58:20.715Z,21.85
2022-08-18T14:00:52.523Z,20.42
2022-08-18T14:03:42.494Z,21.30
2022-08-18T14:06:08.868Z,23.38
2022-08-18T14:08:39.055Z,21.98
2022-08-18T14:11:06.535Z,22.45
2022-08-18T14:13:43.638Z,22.27
2022-08-18T14:16:11.149Z,21.52
2022-08-18T14:19:04.518Z,20.38
2022-08-18T14:22:11.737Z,18.73
2022-08-18T14:24:58.071Z,22.25
2022-08-18T14:27:28.260Z,19.23
2022-08-18T14:30:08.004Z,23.00
2022-08-18T14:32:36.346Z,22.92
2022-08-18T14:35:34.281Z,20.20
2022-08-18T14:37:50.738Z,21.30
2022-08-18T14:40:18.103Z,19.73
2022-08-18T14:42:54.387Z,19.92
2022-08-18T14:45:31.265Z,23.67
2022-08-18T14:48:07.604Z,24.17
2022-08-18T14:50:38.177Z,21.33
2022-08-18T14:53:05.502Z,21.50
2022-08-18T14:55:31.657Z,20.55
2022-08-18T14:57:58.636Z,19.40
2022-08-18T15:00:25.191Z,20.02
2022-08-18T15:02:51.089Z,20.00
2022-08-18T15:05:19.735Z,19.20
2022-08-18T15:07:50.308Z,22.35
2022-08-18T15:10:19.746Z,21.10
2022-08-18T15:12:49.716Z,20.02
2022-08-18T15:15:18.091Z,19.67
2022-08-18T15:17:44.724Z,22.95
2022-08-18T15:20:16.108Z,21.65
2022-08-18T15:23:03.976Z,22.02
2022-08-18T15:25:43.915Z,23.67
2022-08-18T15:28:21.731Z,24.10
2022-08-18T15:30:51.357Z,23.70
2022-08-18T15:33:22.027Z,26.10
2022-08-18T15:35:52.844Z,20.52
2022-08-18T15:38:21.923Z,26.40
2022-08-18T15:40:57.110Z,23.77
2022-08-18T15:43:31.267Z,22.92
2022-08-18T15:45:59.139Z,24.55
2022-08-18T15:48:27.282Z,24.88
2022-08-18T15:50:54.362Z,28.25
2022-08-18T15:53:24.738Z,23.35
2022-08-18T15:55:56.203Z,25.75
2022-08-18T15:58:26.818Z,26.35
2022-08-18T16:00:55.763Z,29.00
2022-08-18T16:03:21.726Z,27.25
2022-08-18T16:05:52.785Z,27.05
2022-08-18T16:08:21.306Z,26.58
2022-08-18T16:10:47.627Z,29.13
2022-08-18T16:13:13.981Z,28.45
2022-08-18T16:15:42.882Z,28.83
2022-08-18T16:18:09.982Z,31.65
2022-08-18T16:20:36.899Z,27.80
2022-08-18T16:23:03.126Z,26.90
2022-08-18T16:25:29.010Z,25.92
2022-08-18T16:27:57.197Z,25.85
2022-08-18T16:30:25.521Z,26.27
2022-08-18T16:32:52.665Z,27.38
2022-08-18T16:35:20.029Z,26.27
2022-08-18T16:37:48.447Z,26.38
2022-08-18T16:40:16.244Z,25.33
2022-08-18T16:42:42.785Z,25.40
2022-08-18T16:45:09.113Z,22.02
2022-08-18T16:47:41.422Z,23.08
2022-08-18T16:50:09.746Z,21.75
2022-08-18T16:52:35.956Z,19.83
2022-08-18T16:55:04.073Z,21.02
2022-08-18T16:57:50.566Z,18.65
2022-08-18T17:00:38.431Z,19.58
2022-08-18T17:03:28.358Z,18.57
2022-08-18T17:06:13.306Z,17.80
2022-08-18T17:08:40.251Z,18.05
2022-08-18T17:11:10.385Z,19.10
2022-08-18T17:13:38.128Z,19.02
2022-08-18T17:16:04.194Z,20.75
2022-08-18T17:18:30.176Z,17.63
2022-08-18T17:21:03.024Z,21.33
2022-08-18T17:23:30.418Z,20.42
2022-08-18T17:25:57.527Z,19.92
2022-08-18T17:28:31.610Z,20.73
2022-08-18T17:31:01.108Z,19.05
2022-08-18T17:33:31.881Z,18.20
2022-08-18T17:36:03.932Z,18.60
2022-08-18T17:38:45.213Z,19.00
2022-08-18T17:41:12.143Z,17.73
2022-08-18T17:46:17.998Z,17.77
2022-08-18T17:48:54.899Z,18.77
2022-08-18T17:51:34.033Z,18.90
2022-08-18T17:54:28.939Z,17.98
2022-08-18T17:57:00.878Z,19.23
2022-08-18T17:59:46.357Z,17.58
2022-08-18T18:02:30.259Z,16.30
2022-08-18T18:05:06.996Z,16.27
2022-08-18T18:07:51.178Z,16.33
2022-08-18T18:10:51.050Z,17.85
2022-08-18T18:13:32.878Z,17.33
2022-08-18T18:16:17.751Z,17.50
2022-08-18T18:18:44.350Z,17.85
2022-08-18T18:21:16.288Z,18.92
2022-08-18T18:23:48.892Z,18.17
2022-08-18T18:26:25.308Z,19.45
2022-08-18T18:29:09.174Z,18.65
2022-08-18T18:31:37.040Z,17.08
2022-08-18T18:34:23.371Z,18.80
2022-08-18T18:36:55.441Z,18.38
2022-08-18T18:39:32.994Z,20.13
2022-08-18T18:42:09.651Z,24.25
2022-08-18T18:44:35.656Z,24.85
2022-08-18T18:47:08.794Z,23.27
2022-08-18T18:49:41.202Z,21.60
2022-08-18T18:52:36.268Z,21.48
2022-08-18T18:55:14.408Z,21.13
2022-08-18T18:57:49.571Z,20.83
2022-08-18T19:00:37.719Z,19.95
2022-08-18T19:03:16.852Z,20.40
2022-08-18T19:05:44.070Z,17.83
2022-08-18T19:08:19.141Z,17.55
2022-08-18T19:10:48.094Z,17.90
2022-08-18T19:13:33.190Z,19.15
2022-08-18T19:16:28.975Z,18.52
2022-08-18T19:19:37.081Z,18.23
2022-08-18T19:22:08.679Z,18.52
2022-08-18T19:24:42.539Z,19.88
2022-08-18T19:27:24.329Z,18.70
2022-08-18T19:29:53.328Z,18.30
2022-08-18T19:32:26.497Z,19.75
2022-08-18T19:34:55.791Z,20.40
2022-08-18T19:37:32.367Z,18.23
2022-08-18T19:40:23.315Z,19.10
2022-08-18T19:42:58.009Z,18.98
2022-08-18T19:45:29.885Z,19.35
2022-08-18T19:48:06.647Z,19.60
2022-08-18T19:50:50.330Z,18.88
2022-08-18T19:53:43.444Z,19.10
2022-08-18T19:56:42.827Z,20.73
2022-08-18T19:59:33.927Z,20.95
2022-08-18T20:02:28.777Z,20.17
2022-08-18T20:04:58.663Z,19.10
2022-08-18T20:08:05.037Z,18.42
2022-08-18T20:11:03.223Z,18.10
2022-08-18T20:13:42.888Z,18.33
2022-08-18T20:16:43.956Z,18.23
2022-08-18T20:19:41.794Z,18.02
2022-08-18T20:22:29.467Z,18.20
2022-08-18T20:24:58.833Z,18.10
2022-08-18T20:27:40.841Z,19.33
2022-08-18T20:30:19.023Z,17.38
2022-08-18T20:33:07.556Z,18.73
2022-08-18T20:36:08.558Z,18.98
2022-08-18T20:38:40.942Z,18.08
2022-08-18T20:41:29.698Z,17.90
2022-08-18T20:44:21.846Z,17.58
2022-08-18T20:47:25.169Z,18.80
2022-08-18T20:52:35.875Z,20.33
2022-08-18T20:55:18.311Z,17.30
2022-08-18T20:57:44.500Z,17.92
2022-08-18T21:00:15.031Z,17.05
2022-08-18T21:02:47.212Z,17.33
2022-08-18T21:05:28.077Z,17.02
2022-08-18T21:07:59.620Z,18.05
2022-08-18T21:10:29.002Z,16.98
2022-08-18T21:12:58.315Z,16.42
2022-08-18T21:15:34.812Z,15.23
2022-08-18T21:18:08.076Z,16.48
2022-08-18T21:20:34.635Z,15.43
2022-08-18T21:23:10.272Z,16.70
2022-08-18T21:25:40.071Z,16.50
2022-08-18T21:28:06.235Z,16.92
2022-08-18T21:30:32.076Z,15.40
2022-08-18T21:32:58.278Z,16.77
2022-08-18T21:35:33.859Z,18.83
2022-08-18T21:38:05.116Z,18.02
2022-08-18T21:40:34.071Z,18.10
2022-08-18T21:43:00.949Z,18.45
2022-08-18T21:45:28.592Z,18.27
2022-08-18T21:47:57.161Z,20.10
2022-08-18T21:50:26.867Z,20.40
2022-08-18T21:52:59.890Z,19.63
2022-08-18T21:55:36.547Z,19.83
2022-08-18T21:58:16.045Z,19.13
2022-08-18T22:00:44.806Z,20.10
2022-08-18T22:03:23.546Z,19.95
2022-08-18T22:06:30.251Z,18.95
2022-08-18T22:09:19.932Z,18.25
2022-08-18T22:12:05.272Z,19.02
2022-08-18T22:14:54.963Z,17.95
2022-08-18T22:17:55.898Z,16.65
2022-08-18T22:20:45.370Z,16.35
2022-08-18T22:23:29.656Z,17.45
2022-08-18T22:26:09.102Z,19.50
2022-08-18T22:29:01.546Z,18.23
2022-08-18T22:31:36.405Z,20.60
2022-08-18T22:34:10.251Z,19.63
2022-08-18T22:36:46.391Z,20.45
2022-08-18T22:39:17.450Z,19.58
2022-08-18T22:41:44.050Z,18.35
2022-08-18T22:44:09.895Z,19.38
2022-08-18T22:46:36.210Z,19.00
2022-08-18T22:49:03.546Z,22.55
2022-08-18T22:51:36.554Z,18.50
2022-08-18T22:54:07.691Z,17.23
2022-08-18T22:56:35.047Z,16.92
2022-08-18T22:59:16.146Z,24.40
2022-08-18T23:01:48.714Z,18.42
2022-08-18T23:04:17.004Z,18.05
2022-08-18T23:06:50.660Z,19.38
2022-08-18T23:09:24.471Z,17.55
2022-08-18T23:11:52.091Z,18.48
2022-08-18T23:14:18.496Z,17.95
2022-08-18T23:16:46.264Z,16.80
2022-08-18T23:19:14.505Z,17.33
2022-08-18T23:21:41.245Z,17.13
2022-08-18T23:24:08.904Z,19.83
2022-08-18T23:26:35.455Z,18.80
2022-08-18T23:29:03.038Z,17.30
2022-08-18T23:31:29.559Z,15.07
2022-08-18T23:33:55.511Z,13.48
2022-08-18T23:36:21.310Z,15.73
2022-08-18T23:38:47.161Z,13.25
2022-08-18T23:41:15.542Z,13.98
2022-08-18T23:43:42.023Z,14.63
2022-08-18T23:46:21.247Z,18.70
2022-08-18T23:48:50.049Z,13.82
2022-08-18T23:51:38.584Z,17.05
2022-08-18T23:54:07.589Z,15.75
2022-08-18T23:56:34.595Z,14.23
2022-08-18T23:59:02.150Z,15.13
